sensor_id;sensor_type;location;lat;lon;timestamp;P1;durP1;ratioP1;P2;durP2;ratioP2
68212;SDS011;55035;47.792;8.724;2022-11-24T00:01:03;3.63;;;0.65;;
68212;SDS011;55035;47.792;8.724;2022-11-24T00:03:30;4.47;;;0.88;;
68212;SDS011;55035;47.792;8.724;2022-11-24T00:06:01;4.15;;;0.80;;
68212;SDS011;55035;47.792;8.724;2022-11-24T00:08:28;3.95;;;0.88;;
68212;SDS011;55035;47.792;8.724;2022-11-24T00:10:54;6.15;;;0.80;;
68212;SDS011;55035;47.792;8.724;2022-11-24T00:13:21;3.75;;;0.70;;
68212;SDS011;55035;47.792;8.724;2022-11-24T00:15:48;6.72;;;0.80;;
68212;SDS011;55035;47.792;8.724;2022-11-24T00:18:17;8.15;;;1.17;;
68212;SDS011;55035;47.792;8.724;2022-11-24T00:20:50;5.10;;;0.90;;
68212;SDS011;55035;47.792;8.724;2022-11-24T00:23:17;5.25;;;1.10;;
68212;SDS011;55035;47.792;8.724;2022-11-24T00:25:44;4.45;;;0.77;;
68212;SDS011;55035;47.792;8.724;2022-11-24T00:28:10;4.40;;;0.90;;
68212;SDS011;55035;47.792;8.724;2022-11-24T00:30:37;5.40;;;1.27;;
68212;SDS011;55035;47.792;8.724;2022-11-24T00:33:04;4.38;;;0.90;;
68212;SDS011;55035;47.792;8.724;2022-11-24T00:35:32;6.85;;;1.00;;
68212;SDS011;55035;47.792;8.724;2022-11-24T00:38:00;5.28;;;1.10;;
68212;SDS011;55035;47.792;8.724;2022-11-24T00:40:27;4.53;;;1.30;;
68212;SDS011;55035;47.792;8.724;2022-11-24T00:42:54;5.22;;;1.63;;
68212;SDS011;55035;47.792;8.724;2022-11-24T00:45:20;5.90;;;1.70;;
68212;SDS011;55035;47.792;8.724;2022-11-24T00:47:47;6.10;;;1.92;;
68212;SDS011;55035;47.792;8.724;2022-11-24T00:50:14;8.40;;;2.30;;
68212;SDS011;55035;47.792;8.724;2022-11-24T00:52:43;7.57;;;2.33;;
68212;SDS011;55035;47.792;8.724;2022-11-24T00:55:09;8.25;;;2.40;;
68212;SDS011;55035;47.792;8.724;2022-11-24T00:57:36;8.52;;;2.30;;
68212;SDS011;55035;47.792;8.724;2022-11-24T01:00:04;6.82;;;2.20;;
68212;SDS011;55035;47.792;8.724;2022-11-24T01:02:31;10.07;;;2.80;;
68212;SDS011;55035;47.792;8.724;2022-11-24T01:04:58;7.20;;;2.47;;
68212;SDS011;55035;47.792;8.724;2022-11-24T01:07:24;5.88;;;1.52;;
68212;SDS011;55035;47.792;8.724;2022-11-24T01:09:53;6.33;;;1.90;;
68212;SDS011;55035;47.792;8.724;2022-11-24T01:12:19;7.20;;;2.28;;
68212;SDS011;55035;47.792;8.724;2022-11-24T01:14:46;9.30;;;3.17;;
68212;SDS011;55035;47.792;8.724;2022-11-24T01:17:13;9.65;;;3.17;;
68212;SDS011;55035;47.792;8.724;2022-11-24T01:19:40;11.48;;;3.40;;
68212;SDS011;55035;47.792;8.724;2022-11-24T01:22:07;8.83;;;3.03;;
68212;SDS011;55035;47.792;8.724;2022-11-24T01:24:34;9.10;;;2.95;;
68212;SDS011;55035;47.792;8.724;2022-11-24T01:27:02;8.88;;;3.53;;
68212;SDS011;55035;47.792;8.724;2022-11-24T01:29:29;9.27;;;3.17;;
68212;SDS011;55035;47.792;8.724;2022-11-24T01:31:56;8.65;;;3.40;;
68212;SDS011;55035;47.792;8.724;2022-11-24T01:34:22;8.63;;;2.80;;
68212;SDS011;55035;47.792;8.724;2022-11-24T01:36:49;11.57;;;3.13;;
68212;SDS011;55035;47.792;8.724;2022-11-24T01:39:17;12.05;;;3.13;;
68212;SDS011;55035;47.792;8.724;2022-11-24T01:41:44;8.95;;;3.20;;
68212;SDS011;55035;47.792;8.724;2022-11-24T01:44:23;9.20;;;3.10;;
68212;SDS011;55035;47.792;8.724;2022-11-24T01:46:51;9.57;;;3.30;;
68212;SDS011;55035;47.792;8.724;2022-11-24T01:49:20;9.00;;;2.88;;
68212;SDS011;55035;47.792;8.724;2022-11-24T01:51:48;10.75;;;3.00;;
68212;SDS011;55035;47.792;8.724;2022-11-24T01:54:17;8.07;;;2.80;;
68212;SDS011;55035;47.792;8.724;2022-11-24T01:56:46;11.32;;;3.25;;
68212;SDS011;55035;47.792;8.724;2022-11-24T01:59:14;13.27;;;3.58;;
68212;SDS011;55035;47.792;8.724;2022-11-24T02:01:44;10.48;;;3.40;;
68212;SDS011;55035;47.792;8.724;2022-11-24T02:04:13;12.07;;;3.15;;
68212;SDS011;55035;47.792;8.724;2022-11-24T02:06:43;10.73;;;3.42;;
68212;SDS011;55035;47.792;8.724;2022-11-24T02:09:10;13.48;;;3.58;;
68212;SDS011;55035;47.792;8.724;2022-11-24T02:11:38;11.13;;;3.77;;
68212;SDS011;55035;47.792;8.724;2022-11-24T02:14:06;9.30;;;3.35;;
68212;SDS011;55035;47.792;8.724;2022-11-24T02:16:35;11.20;;;4.20;;
68212;SDS011;55035;47.792;8.724;2022-11-24T02:19:03;9.90;;;3.10;;
68212;SDS011;55035;47.792;8.724;2022-11-24T02:21:32;10.57;;;2.78;;
68212;SDS011;55035;47.792;8.724;2022-11-24T02:23:59;9.57;;;3.10;;
68212;SDS011;55035;47.792;8.724;2022-11-24T02:26:33;12.90;;;3.65;;
68212;SDS011;55035;47.792;8.724;2022-11-24T02:29:01;11.13;;;3.28;;
68212;SDS011;55035;47.792;8.724;2022-11-24T02:31:28;12.02;;;3.28;;
68212;SDS011;55035;47.792;8.724;2022-11-24T02:33:56;10.77;;;3.55;;
68212;SDS011;55035;47.792;8.724;2022-11-24T02:36:23;10.70;;;3.20;;
68212;SDS011;55035;47.792;8.724;2022-11-24T02:38:50;10.63;;;3.05;;
68212;SDS011;55035;47.792;8.724;2022-11-24T02:41:18;9.15;;;2.95;;
68212;SDS011;55035;47.792;8.724;2022-11-24T02:43:47;10.75;;;3.17;;
68212;SDS011;55035;47.792;8.724;2022-11-24T02:46:16;11.88;;;3.33;;
68212;SDS011;55035;47.792;8.724;2022-11-24T02:48:43;11.18;;;2.95;;
68212;SDS011;55035;47.792;8.724;2022-11-24T02:51:09;14.43;;;3.63;;
68212;SDS011;55035;47.792;8.724;2022-11-24T02:53:36;11.60;;;3.40;;
68212;SDS011;55035;47.792;8.724;2022-11-24T02:56:03;9.95;;;3.08;;
68212;SDS011;55035;47.792;8.724;2022-11-24T02:58:30;8.98;;;2.13;;
68212;SDS011;55035;47.792;8.724;2022-11-24T03:00:58;10.25;;;2.75;;
68212;SDS011;55035;47.792;8.724;2022-11-24T03:03:25;8.32;;;2.58;;
68212;SDS011;55035;47.792;8.724;2022-11-24T03:05:52;10.00;;;2.72;;
68212;SDS011;55035;47.792;8.724;2022-11-24T03:08:19;8.32;;;2.00;;
68212;SDS011;55035;47.792;8.724;2022-11-24T03:10:46;8.63;;;2.45;;
68212;SDS011;55035;47.792;8.724;2022-11-24T03:13:13;10.25;;;2.58;;
68212;SDS011;55035;47.792;8.724;2022-11-24T03:15:40;11.93;;;2.70;;
68212;SDS011;55035;47.792;8.724;2022-11-24T03:18:08;12.05;;;2.30;;
68212;SDS011;55035;47.792;8.724;2022-11-24T03:20:35;6.95;;;1.92;;
68212;SDS011;55035;47.792;8.724;2022-11-24T03:23:02;8.35;;;2.33;;
68212;SDS011;55035;47.792;8.724;2022-11-24T03:25:29;9.77;;;2.30;;
68212;SDS011;55035;47.792;8.724;2022-11-24T03:27:56;6.90;;;2.45;;
68212;SDS011;55035;47.792;8.724;2022-11-24T03:30:23;13.82;;;2.47;;
68212;SDS011;55035;47.792;8.724;2022-11-24T03:32:50;11.73;;;2.60;;
68212;SDS011;55035;47.792;8.724;2022-11-24T03:35:18;10.40;;;2.47;;
68212;SDS011;55035;47.792;8.724;2022-11-24T03:37:45;9.75;;;3.17;;
68212;SDS011;55035;47.792;8.724;2022-11-24T03:40:12;9.98;;;2.50;;
68212;SDS011;55035;47.792;8.724;2022-11-24T03:42:40;12.18;;;2.92;;
68212;SDS011;55035;47.792;8.724;2022-11-24T03:45:07;15.27;;;2.70;;
68212;SDS011;55035;47.792;8.724;2022-11-24T03:47:34;8.60;;;2.53;;
68212;SDS011;55035;47.792;8.724;2022-11-24T03:50:01;10.10;;;2.75;;
68212;SDS011;55035;47.792;8.724;2022-11-24T03:52:29;15.13;;;3.20;;
68212;SDS011;55035;47.792;8.724;2022-11-24T03:54:56;9.82;;;2.63;;
68212;SDS011;55035;47.792;8.724;2022-11-24T03:57:23;10.88;;;2.60;;
68212;SDS011;55035;47.792;8.724;2022-11-24T03:59:50;10.68;;;2.45;;
68212;SDS011;55035;47.792;8.724;2022-11-24T04:02:17;10.93;;;2.67;;
68212;SDS011;55035;47.792;8.724;2022-11-24T04:04:43;10.65;;;2.17;;
68212;SDS011;55035;47.792;8.724;2022-11-24T04:07:15;9.68;;;1.50;;
68212;SDS011;55035;47.792;8.724;2022-11-24T04:09:43;10.38;;;1.95;;
68212;SDS011;55035;47.792;8.724;2022-11-24T04:12:10;9.13;;;2.00;;
68212;SDS011;55035;47.792;8.724;2022-11-24T04:14:54;7.30;;;2.00;;
68212;SDS011;55035;47.792;8.724;2022-11-24T04:17:21;10.15;;;2.13;;
68212;SDS011;55035;47.792;8.724;2022-11-24T04:19:48;13.65;;;1.98;;
68212;SDS011;55035;47.792;8.724;2022-11-24T04:22:15;10.02;;;2.10;;
68212;SDS011;55035;47.792;8.724;2022-11-24T04:24:43;9.30;;;2.15;;
68212;SDS011;55035;47.792;8.724;2022-11-24T04:27:10;9.13;;;2.50;;
68212;SDS011;55035;47.792;8.724;2022-11-24T04:29:37;10.05;;;1.70;;
68212;SDS011;55035;47.792;8.724;2022-11-24T04:32:04;10.35;;;1.80;;
68212;SDS011;55035;47.792;8.724;2022-11-24T04:34:31;6.70;;;1.40;;
68212;SDS011;55035;47.792;8.724;2022-11-24T04:36:57;11.73;;;2.25;;
68212;SDS011;55035;47.792;8.724;2022-11-24T04:39:24;10.63;;;2.03;;
68212;SDS011;55035;47.792;8.724;2022-11-24T04:41:53;9.65;;;1.52;;
68212;SDS011;55035;47.792;8.724;2022-11-24T04:44:21;9.60;;;1.55;;
68212;SDS011;55035;47.792;8.724;2022-11-24T04:46:48;10.95;;;1.73;;
68212;SDS011;55035;47.792;8.724;2022-11-24T04:49:14;10.32;;;1.80;;
68212;SDS011;55035;47.792;8.724;2022-11-24T04:51:41;11.23;;;1.75;;
68212;SDS011;55035;47.792;8.724;2022-11-24T04:54:09;14.10;;;2.28;;
68212;SDS011;55035;47.792;8.724;2022-11-24T04:56:36;11.60;;;2.05;;
68212;SDS011;55035;47.792;8.724;2022-11-24T04:59:05;9.93;;;2.40;;
68212;SDS011;55035;47.792;8.724;2022-11-24T05:01:32;11.23;;;2.38;;
68212;SDS011;55035;47.792;8.724;2022-11-24T05:03:59;16.03;;;1.97;;
68212;SDS011;55035;47.792;8.724;2022-11-24T05:06:26;10.75;;;2.00;;
68212;SDS011;55035;47.792;8.724;2022-11-24T05:08:52;9.15;;;2.08;;
68212;SDS011;55035;47.792;8.724;2022-11-24T05:11:19;10.52;;;2.50;;
68212;SDS011;55035;47.792;8.724;2022-11-24T05:13:45;9.27;;;2.33;;
68212;SDS011;55035;47.792;8.724;2022-11-24T05:16:13;11.75;;;2.25;;
68212;SDS011;55035;47.792;8.724;2022-11-24T05:18:42;6.97;;;2.38;;
68212;SDS011;55035;47.792;8.724;2022-11-24T05:21:09;9.40;;;2.33;;
68212;SDS011;55035;47.792;8.724;2022-11-24T05:23:36;10.25;;;2.58;;
68212;SDS011;55035;47.792;8.724;2022-11-24T05:26:03;10.87;;;3.00;;
68212;SDS011;55035;47.792;8.724;2022-11-24T05:28:30;12.35;;;2.95;;
68212;SDS011;55035;47.792;8.724;2022-11-24T05:30:57;11.43;;;2.90;;
68212;SDS011;55035;47.792;8.724;2022-11-24T05:33:26;12.52;;;2.80;;
68212;SDS011;55035;47.792;8.724;2022-11-24T05:35:57;9.10;;;2.30;;
68212;SDS011;55035;47.792;8.724;2022-11-24T05:38:25;9.13;;;2.60;;
68212;SDS011;55035;47.792;8.724;2022-11-24T05:40:52;8.35;;;2.53;;
68212;SDS011;55035;47.792;8.724;2022-11-24T05:43:19;7.78;;;2.30;;
68212;SDS011;55035;47.792;8.724;2022-11-24T05:45:47;9.13;;;2.63;;
68212;SDS011;55035;47.792;8.724;2022-11-24T05:48:13;9.43;;;2.60;;
68212;SDS011;55035;47.792;8.724;2022-11-24T05:50:41;8.37;;;2.57;;
68212;SDS011;55035;47.792;8.724;2022-11-24T05:53:09;12.10;;;2.42;;
68212;SDS011;55035;47.792;8.724;2022-11-24T05:55:36;8.63;;;2.08;;
68212;SDS011;55035;47.792;8.724;2022-11-24T05:58:04;6.32;;;1.90;;
68212;SDS011;55035;47.792;8.724;2022-11-24T06:00:32;7.53;;;2.08;;
68212;SDS011;55035;47.792;8.724;2022-11-24T06:02:59;6.97;;;1.73;;
68212;SDS011;55035;47.792;8.724;2022-11-24T06:05:26;5.97;;;1.50;;
68212;SDS011;55035;47.792;8.724;2022-11-24T06:07:55;7.50;;;1.70;;
68212;SDS011;55035;47.792;8.724;2022-11-24T06:10:22;10.93;;;1.80;;
68212;SDS011;55035;47.792;8.724;2022-11-24T06:12:49;9.40;;;2.70;;
68212;SDS011;55035;47.792;8.724;2022-11-24T06:15:16;7.43;;;2.23;;
68212;SDS011;55035;47.792;8.724;2022-11-24T06:17:43;7.82;;;2.10;;
68212;SDS011;55035;47.792;8.724;2022-11-24T06:20:10;10.82;;;2.00;;
68212;SDS011;55035;47.792;8.724;2022-11-24T06:22:37;9.77;;;2.08;;
68212;SDS011;55035;47.792;8.724;2022-11-24T06:25:06;9.05;;;2.05;;
68212;SDS011;55035;47.792;8.724;2022-11-24T06:27:33;11.47;;;2.23;;
68212;SDS011;55035;47.792;8.724;2022-11-24T06:30:00;8.73;;;2.15;;
68212;SDS011;55035;47.792;8.724;2022-11-24T06:32:28;8.55;;;2.65;;
68212;SDS011;55035;47.792;8.724;2022-11-24T06:34:55;10.57;;;2.30;;
68212;SDS011;55035;47.792;8.724;2022-11-24T06:37:22;7.63;;;2.33;;
68212;SDS011;55035;47.792;8.724;2022-11-24T06:39:48;9.15;;;2.00;;
68212;SDS011;55035;47.792;8.724;2022-11-24T06:42:17;9.90;;;2.22;;
68212;SDS011;55035;47.792;8.724;2022-11-24T06:44:46;8.80;;;2.15;;
68212;SDS011;55035;47.792;8.724;2022-11-24T06:47:14;13.27;;;2.13;;
68212;SDS011;55035;47.792;8.724;2022-11-24T06:49:41;13.25;;;2.55;;
68212;SDS011;55035;47.792;8.724;2022-11-24T06:52:08;7.68;;;2.08;;
68212;SDS011;55035;47.792;8.724;2022-11-24T06:54:35;11.95;;;2.70;;
68212;SDS011;55035;47.792;8.724;2022-11-24T06:57:01;10.48;;;2.55;;
68212;SDS011;55035;47.792;8.724;2022-11-24T06:59:30;8.65;;;2.30;;
68212;SDS011;55035;47.792;8.724;2022-11-24T07:01:56;10.48;;;2.70;;
68212;SDS011;55035;47.792;8.724;2022-11-24T07:04:23;9.40;;;2.50;;
68212;SDS011;55035;47.792;8.724;2022-11-24T07:06:50;11.40;;;3.08;;
68212;SDS011;55035;47.792;8.724;2022-11-24T07:09:17;9.35;;;2.25;;
68212;SDS011;55035;47.792;8.724;2022-11-24T07:11:44;7.53;;;2.38;;
68212;SDS011;55035;47.792;8.724;2022-11-24T07:14:11;11.30;;;2.45;;
68212;SDS011;55035;47.792;8.724;2022-11-24T07:16:39;9.77;;;2.30;;
68212;SDS011;55035;47.792;8.724;2022-11-24T07:19:07;6.88;;;2.33;;
68212;SDS011;55035;47.792;8.724;2022-11-24T07:21:34;7.97;;;2.35;;
68212;SDS011;55035;47.792;8.724;2022-11-24T07:24:01;7.07;;;2.17;;
68212;SDS011;55035;47.792;8.724;2022-11-24T07:26:28;7.50;;;2.13;;
68212;SDS011;55035;47.792;8.724;2022-11-24T07:28:55;10.68;;;2.10;;
68212;SDS011;55035;47.792;8.724;2022-11-24T07:31:22;7.07;;;1.63;;
68212;SDS011;55035;47.792;8.724;2022-11-24T07:33:52;9.23;;;1.75;;
68212;SDS011;55035;47.792;8.724;2022-11-24T07:36:19;8.18;;;1.88;;
68212;SDS011;55035;47.792;8.724;2022-11-24T07:38:46;8.00;;;1.70;;
68212;SDS011;55035;47.792;8.724;2022-11-24T07:41:13;10.07;;;2.28;;
68212;SDS011;55035;47.792;8.724;2022-11-24T07:43:40;7.82;;;2.22;;
68212;SDS011;55035;47.792;8.724;2022-11-24T07:46:12;7.68;;;1.52;;
68212;SDS011;55035;47.792;8.724;2022-11-24T07:48:40;7.47;;;1.77;;
68212;SDS011;55035;47.792;8.724;2022-11-24T07:51:09;10.75;;;2.28;;
68212;SDS011;55035;47.792;8.724;2022-11-24T07:53:36;8.57;;;1.80;;
68212;SDS011;55035;47.792;8.724;2022-11-24T07:56:04;9.07;;;1.88;;
68212;SDS011;55035;47.792;8.724;2022-11-24T07:58:32;8.00;;;1.73;;
68212;SDS011;55035;47.792;8.724;2022-11-24T08:00:59;11.23;;;2.35;;
68212;SDS011;55035;47.792;8.724;2022-11-24T08:03:34;6.60;;;1.60;;
68212;SDS011;55035;47.792;8.724;2022-11-24T08:06:01;8.05;;;1.58;;
68212;SDS011;55035;47.792;8.724;2022-11-24T08:08:30;9.25;;;1.60;;
68212;SDS011;55035;47.792;8.724;2022-11-24T08:11:02;8.60;;;1.55;;
68212;SDS011;55035;47.792;8.724;2022-11-24T08:13:29;11.13;;;1.67;;
68212;SDS011;55035;47.792;8.724;2022-11-24T08:15:56;10.20;;;1.73;;
68212;SDS011;55035;47.792;8.724;2022-11-24T08:18:23;6.55;;;1.40;;
68212;SDS011;55035;47.792;8.724;2022-11-24T08:20:50;8.07;;;1.58;;
68212;SDS011;55035;47.792;8.724;2022-11-24T08:23:17;7.78;;;1.52;;
68212;SDS011;55035;47.792;8.724;2022-11-24T08:25:45;7.80;;;1.50;;
68212;SDS011;55035;47.792;8.724;2022-11-24T08:28:12;7.72;;;1.38;;
68212;SDS011;55035;47.792;8.724;2022-11-24T08:30:39;7.55;;;1.48;;
68212;SDS011;55035;47.792;8.724;2022-11-24T08:33:06;7.13;;;1.67;;
68212;SDS011;55035;47.792;8.724;2022-11-24T08:35:34;7.55;;;1.58;;
68212;SDS011;55035;47.792;8.724;2022-11-24T08:38:04;6.85;;;1.50;;
68212;SDS011;55035;47.792;8.724;2022-11-24T08:40:31;8.57;;;1.33;;
68212;SDS011;55035;47.792;8.724;2022-11-24T08:43:02;6.05;;;1.33;;
68212;SDS011;55035;47.792;8.724;2022-11-24T08:45:29;6.68;;;0.95;;
68212;SDS011;55035;47.792;8.724;2022-11-24T08:47:56;5.07;;;0.95;;
68212;SDS011;55035;47.792;8.724;2022-11-24T08:50:24;5.22;;;0.70;;
68212;SDS011;55035;47.792;8.724;2022-11-24T08:52:51;2.40;;;0.50;;
68212;SDS011;55035;47.792;8.724;2022-11-24T08:55:18;4.75;;;0.90;;
68212;SDS011;55035;47.792;8.724;2022-11-24T08:57:45;6.85;;;1.10;;
68212;SDS011;55035;47.792;8.724;2022-11-24T09:00:14;4.18;;;0.65;;
68212;SDS011;55035;47.792;8.724;2022-11-24T09:02:53;4.38;;;0.70;;
68212;SDS011;55035;47.792;8.724;2022-11-24T09:05:20;4.78;;;0.90;;
68212;SDS011;55035;47.792;8.724;2022-11-24T09:07:47;5.05;;;0.77;;
68212;SDS011;55035;47.792;8.724;2022-11-24T09:10:14;5.38;;;0.70;;
68212;SDS011;55035;47.792;8.724;2022-11-24T09:12:42;6.68;;;1.10;;
68212;SDS011;55035;47.792;8.724;2022-11-24T09:15:09;4.93;;;0.68;;
68212;SDS011;55035;47.792;8.724;2022-11-24T09:17:37;2.17;;;0.57;;
68212;SDS011;55035;47.792;8.724;2022-11-24T09:20:05;4.22;;;0.77;;
68212;SDS011;55035;47.792;8.724;2022-11-24T09:22:33;5.57;;;0.95;;
68212;SDS011;55035;47.792;8.724;2022-11-24T09:25:03;4.90;;;0.90;;
68212;SDS011;55035;47.792;8.724;2022-11-24T09:27:30;5.53;;;0.73;;
68212;SDS011;55035;47.792;8.724;2022-11-24T09:29:58;3.70;;;0.70;;
68212;SDS011;55035;47.792;8.724;2022-11-24T09:32:25;5.93;;;0.82;;
68212;SDS011;55035;47.792;8.724;2022-11-24T09:34:53;5.05;;;0.70;;
68212;SDS011;55035;47.792;8.724;2022-11-24T09:37:20;4.85;;;0.85;;
68212;SDS011;55035;47.792;8.724;2022-11-24T09:39:47;5.47;;;0.80;;
68212;SDS011;55035;47.792;8.724;2022-11-24T09:42:15;3.60;;;0.63;;
68212;SDS011;55035;47.792;8.724;2022-11-24T09:44:47;4.45;;;0.70;;
68212;SDS011;55035;47.792;8.724;2022-11-24T09:47:20;3.78;;;0.70;;
68212;SDS011;55035;47.792;8.724;2022-11-24T09:49:50;6.05;;;1.13;;
68212;SDS011;55035;47.792;8.724;2022-11-24T09:52:22;16.02;;;1.10;;
68212;SDS011;55035;47.792;8.724;2022-11-24T09:54:52;5.07;;;0.70;;
68212;SDS011;55035;47.792;8.724;2022-11-24T09:57:20;5.47;;;1.02;;
68212;SDS011;55035;47.792;8.724;2022-11-24T09:59:49;6.53;;;0.93;;
68212;SDS011;55035;47.792;8.724;2022-11-24T10:02:16;12.07;;;3.38;;
68212;SDS011;55035;47.792;8.724;2022-11-24T10:04:44;12.15;;;3.65;;
68212;SDS011;55035;47.792;8.724;2022-11-24T10:07:13;6.55;;;1.55;;
68212;SDS011;55035;47.792;8.724;2022-11-24T10:09:49;6.82;;;1.77;;
68212;SDS011;55035;47.792;8.724;2022-11-24T10:12:22;6.75;;;1.65;;
68212;SDS011;55035;47.792;8.724;2022-11-24T10:14:56;3.85;;;0.60;;
68212;SDS011;55035;47.792;8.724;2022-11-24T10:17:28;6.32;;;1.20;;
68212;SDS011;55035;47.792;8.724;2022-11-24T10:20:01;5.03;;;1.00;;
68212;SDS011;55035;47.792;8.724;2022-11-24T10:22:34;5.97;;;0.95;;
68212;SDS011;55035;47.792;8.724;2022-11-24T10:25:08;4.13;;;0.95;;
68212;SDS011;55035;47.792;8.724;2022-11-24T10:27:38;4.13;;;0.80;;
68212;SDS011;55035;47.792;8.724;2022-11-24T10:30:11;7.22;;;1.13;;
68212;SDS011;55035;47.792;8.724;2022-11-24T10:32:39;5.97;;;0.88;;
68212;SDS011;55035;47.792;8.724;2022-11-24T10:35:16;7.00;;;1.02;;
68212;SDS011;55035;47.792;8.724;2022-11-24T10:37:46;6.40;;;1.00;;
68212;SDS011;55035;47.792;8.724;2022-11-24T10:40:17;7.97;;;0.90;;
68212;SDS011;55035;47.792;8.724;2022-11-24T10:42:49;4.07;;;0.80;;
68212;SDS011;55035;47.792;8.724;2022-11-24T10:45:17;4.15;;;0.60;;
68212;SDS011;55035;47.792;8.724;2022-11-24T10:47:47;5.85;;;0.90;;
68212;SDS011;55035;47.792;8.724;2022-11-24T10:50:15;6.53;;;1.00;;
68212;SDS011;55035;47.792;8.724;2022-11-24T10:52:46;4.32;;;0.70;;
68212;SDS011;55035;47.792;8.724;2022-11-24T10:55:14;7.00;;;0.80;;
68212;SDS011;55035;47.792;8.724;2022-11-24T10:57:42;5.28;;;0.90;;
68212;SDS011;55035;47.792;8.724;2022-11-24T11:03:08;5.55;;;0.80;;
68212;SDS011;55035;47.792;8.724;2022-11-24T11:05:38;4.50;;;0.60;;
68212;SDS011;55035;47.792;8.724;2022-11-24T11:08:14;4.22;;;0.65;;
68212;SDS011;55035;47.792;8.724;2022-11-24T11:10:44;4.40;;;0.90;;
68212;SDS011;55035;47.792;8.724;2022-11-24T11:13:24;5.10;;;0.65;;
68212;SDS011;55035;47.792;8.724;2022-11-24T11:15:53;6.53;;;0.80;;
68212;SDS011;55035;47.792;8.724;2022-11-24T11:18:20;4.90;;;1.30;;
68212;SDS011;55035;47.792;8.724;2022-11-24T11:20:49;4.55;;;0.85;;
68212;SDS011;55035;47.792;8.724;2022-11-24T11:23:19;4.97;;;0.60;;
68212;SDS011;55035;47.792;8.724;2022-11-24T11:25:46;5.22;;;0.82;;
68212;SDS011;55035;47.792;8.724;2022-11-24T11:28:26;6.68;;;0.70;;
68212;SDS011;55035;47.792;8.724;2022-11-24T11:30:57;5.97;;;0.85;;
68212;SDS011;55035;47.792;8.724;2022-11-24T11:33:25;7.22;;;1.10;;
68212;SDS011;55035;47.792;8.724;2022-11-24T11:35:52;6.50;;;0.82;;
68212;SDS011;55035;47.792;8.724;2022-11-24T11:38:20;5.30;;;1.10;;
68212;SDS011;55035;47.792;8.724;2022-11-24T11:40:47;6.13;;;1.00;;
68212;SDS011;55035;47.792;8.724;2022-11-24T11:43:17;5.82;;;0.90;;
68212;SDS011;55035;47.792;8.724;2022-11-24T11:45:52;5.93;;;0.90;;
68212;SDS011;55035;47.792;8.724;2022-11-24T11:48:24;7.43;;;1.10;;
68212;SDS011;55035;47.792;8.724;2022-11-24T11:50:53;5.13;;;1.00;;
68212;SDS011;55035;47.792;8.724;2022-11-24T11:53:25;6.50;;;0.90;;
68212;SDS011;55035;47.792;8.724;2022-11-24T11:56:07;6.15;;;0.95;;
68212;SDS011;55035;47.792;8.724;2022-11-24T11:58:42;5.82;;;0.90;;
68212;SDS011;55035;47.792;8.724;2022-11-24T12:01:17;4.70;;;1.10;;
68212;SDS011;55035;47.792;8.724;2022-11-24T12:03:55;7.07;;;1.10;;
68212;SDS011;55035;47.792;8.724;2022-11-24T12:06:27;6.20;;;0.75;;
68212;SDS011;55035;47.792;8.724;2022-11-24T12:09:04;6.25;;;0.85;;
68212;SDS011;55035;47.792;8.724;2022-11-24T12:11:36;7.80;;;1.30;;
68212;SDS011;55035;47.792;8.724;2022-11-24T12:14:11;6.25;;;0.98;;
68212;SDS011;55035;47.792;8.724;2022-11-24T12:16:44;6.97;;;1.13;;
68212;SDS011;55035;47.792;8.724;2022-11-24T12:19:14;6.25;;;1.17;;
68212;SDS011;55035;47.792;8.724;2022-11-24T12:21:47;8.30;;;1.00;;
68212;SDS011;55035;47.792;8.724;2022-11-24T12:24:17;6.38;;;1.20;;
68212;SDS011;55035;47.792;8.724;2022-11-24T12:26:48;6.63;;;1.13;;
68212;SDS011;55035;47.792;8.724;2022-11-24T12:32:06;5.77;;;1.40;;
68212;SDS011;55035;47.792;8.724;2022-11-24T12:34:38;6.47;;;0.90;;
68212;SDS011;55035;47.792;8.724;2022-11-24T12:37:12;6.05;;;0.90;;
68212;SDS011;55035;47.792;8.724;2022-11-24T12:39:42;4.72;;;0.70;;
68212;SDS011;55035;47.792;8.724;2022-11-24T12:42:12;6.22;;;1.30;;
68212;SDS011;55035;47.792;8.724;2022-11-24T12:44:48;5.07;;;1.23;;
68212;SDS011;55035;47.792;8.724;2022-11-24T12:47:22;6.63;;;0.85;;
68212;SDS011;55035;47.792;8.724;2022-11-24T12:49:55;7.25;;;1.35;;
68212;SDS011;55035;47.792;8.724;2022-11-24T12:52:25;6.18;;;1.00;;
68212;SDS011;55035;47.792;8.724;2022-11-24T12:54:52;7.38;;;1.38;;
68212;SDS011;55035;47.792;8.724;2022-11-24T12:57:23;6.00;;;1.30;;
68212;SDS011;55035;47.792;8.724;2022-11-24T12:59:53;6.70;;;1.20;;
68212;SDS011;55035;47.792;8.724;2022-11-24T13:02:28;6.10;;;0.90;;
68212;SDS011;55035;47.792;8.724;2022-11-24T13:05:00;6.75;;;1.05;;
68212;SDS011;55035;47.792;8.724;2022-11-24T13:07:35;6.07;;;0.70;;
68212;SDS011;55035;47.792;8.724;2022-11-24T13:12:52;5.05;;;1.05;;
68212;SDS011;55035;47.792;8.724;2022-11-24T13:15:19;5.10;;;0.60;;
68212;SDS011;55035;47.792;8.724;2022-11-24T13:17:48;7.22;;;1.02;;
68212;SDS011;55035;47.792;8.724;2022-11-24T13:20:19;5.15;;;0.80;;
68212;SDS011;55035;47.792;8.724;2022-11-24T13:22:47;5.10;;;0.80;;
68212;SDS011;55035;47.792;8.724;2022-11-24T13:25:16;5.22;;;0.98;;
68212;SDS011;55035;47.792;8.724;2022-11-24T13:27:44;5.78;;;1.20;;
68212;SDS011;55035;47.792;8.724;2022-11-24T13:33:00;6.28;;;0.80;;
68212;SDS011;55035;47.792;8.724;2022-11-24T13:35:27;5.87;;;0.80;;
68212;SDS011;55035;47.792;8.724;2022-11-24T13:37:54;5.82;;;0.80;;
68212;SDS011;55035;47.792;8.724;2022-11-24T13:40:38;5.20;;;0.95;;
68212;SDS011;55035;47.792;8.724;2022-11-24T13:43:18;6.63;;;1.05;;
68212;SDS011;55035;47.792;8.724;2022-11-24T13:45:49;6.57;;;1.23;;
68212;SDS011;55035;47.792;8.724;2022-11-24T13:51:13;7.68;;;1.15;;
68212;SDS011;55035;47.792;8.724;2022-11-24T13:53:43;8.90;;;1.30;;
68212;SDS011;55035;47.792;8.724;2022-11-24T13:56:19;5.82;;;1.05;;
68212;SDS011;55035;47.792;8.724;2022-11-24T13:58:47;5.50;;;0.93;;
68212;SDS011;55035;47.792;8.724;2022-11-24T14:01:16;7.70;;;1.43;;
68212;SDS011;55035;47.792;8.724;2022-11-24T14:03:45;5.70;;;0.90;;
68212;SDS011;55035;47.792;8.724;2022-11-24T14:06:25;7.80;;;1.02;;
68212;SDS011;55035;47.792;8.724;2022-11-24T14:08:53;7.40;;;1.00;;
68212;SDS011;55035;47.792;8.724;2022-11-24T14:11:21;7.40;;;1.15;;
68212;SDS011;55035;47.792;8.724;2022-11-24T14:13:50;8.20;;;1.10;;
68212;SDS011;55035;47.792;8.724;2022-11-24T14:16:17;5.47;;;0.80;;
68212;SDS011;55035;47.792;8.724;2022-11-24T14:18:45;6.13;;;1.00;;
68212;SDS011;55035;47.792;8.724;2022-11-24T14:21:27;8.63;;;0.93;;
68212;SDS011;55035;47.792;8.724;2022-11-24T14:23:56;6.45;;;1.33;;
68212;SDS011;55035;47.792;8.724;2022-11-24T14:26:25;7.10;;;0.95;;
68212;SDS011;55035;47.792;8.724;2022-11-24T14:29:01;8.45;;;1.20;;
68212;SDS011;55035;47.792;8.724;2022-11-24T14:31:29;7.80;;;1.20;;
68212;SDS011;55035;47.792;8.724;2022-11-24T14:34:06;5.32;;;0.80;;
68212;SDS011;55035;47.792;8.724;2022-11-24T14:36:40;7.03;;;1.10;;
68212;SDS011;55035;47.792;8.724;2022-11-24T14:39:10;8.38;;;1.23;;
68212;SDS011;55035;47.792;8.724;2022-11-24T14:41:37;7.78;;;1.10;;
68212;SDS011;55035;47.792;8.724;2022-11-24T14:44:04;7.82;;;1.10;;
68212;SDS011;55035;47.792;8.724;2022-11-24T14:46:31;8.60;;;1.60;;
68212;SDS011;55035;47.792;8.724;2022-11-24T14:48:58;6.65;;;1.33;;
68212;SDS011;55035;47.792;8.724;2022-11-24T14:51:27;6.47;;;1.60;;
68212;SDS011;55035;47.792;8.724;2022-11-24T14:53:57;7.35;;;1.50;;
68212;SDS011;55035;47.792;8.724;2022-11-24T14:56:26;8.43;;;1.00;;
68212;SDS011;55035;47.792;8.724;2022-11-24T14:58:54;8.65;;;1.20;;
68212;SDS011;55035;47.792;8.724;2022-11-24T15:01:22;8.05;;;1.30;;
68212;SDS011;55035;47.792;8.724;2022-11-24T15:04:10;7.13;;;1.02;;
68212;SDS011;55035;47.792;8.724;2022-11-24T15:06:37;6.00;;;0.93;;
68212;SDS011;55035;47.792;8.724;2022-11-24T15:09:05;8.43;;;1.45;;